createdAt,value
2018-09-29T00:00:44.203Z,56.22
2018-09-29T00:01:44.024Z,56.26
2018-09-29T00:02:44.438Z,56.24
2018-09-29T00:03:44.165Z,56.22
2018-09-29T00:04:44.108Z,56.23
2018-09-29T00:05:44.184Z,56.22
2018-09-29T00:06:44.037Z,56.21
2018-09-29T00:07:44.164Z,56.19
2018-09-29T00:08:44.261Z,56.16
2018-09-29T00:09:43.959Z,56.2
2018-09-29T00:10:44.082Z,56.18
2018-09-29T00:11:44.261Z,56.21
2018-09-29T00:12:44.076Z,56.21
2018-09-29T00:13:44.135Z,56.15
2018-09-29T00:14:44.146Z,56.23
2018-09-29T00:15:44.063Z,56.26
2018-09-29T00:16:44.164Z,56.23
2018-09-29T00:17:44.132Z,56.27
2018-09-29T00:18:44.060Z,56.25
2018-09-29T00:19:44.021Z,56.18
2018-09-29T00:20:44.434Z,56.19
2018-09-29T00:21:44.133Z,56.19
2018-09-29T00:22:44.028Z,56.15
2018-09-29T00:23:44.395Z,56.22
2018-09-29T00:24:44.324Z,56.17
2018-09-29T00:25:44.224Z,56.17
2018-09-29T00:26:43.978Z,56.2
2018-09-29T00:27:44.012Z,56.22
2018-09-29T00:28:44.237Z,56.21
2018-09-29T00:29:44.356Z,56.21
2018-09-29T00:30:44.109Z,56.19
2018-09-29T00:31:44.375Z,56.12
2018-09-29T00:32:44.149Z,56.16
2018-09-29T00:33:44.141Z,56.15
2018-09-29T00:34:44.249Z,56.16
2018-09-29T00:35:44.402Z,56.16
2018-09-29T00:36:43.978Z,56.17
2018-09-29T00:37:44.029Z,56.16
2018-09-29T00:38:44.002Z,56.15
2018-09-29T00:39:44.239Z,56.18
2018-09-29T00:40:44.198Z,56.15
2018-09-29T00:41:44.035Z,56.15
2018-09-29T00:42:44.082Z,56.19
2018-09-29T00:43:44.144Z,56.16
2018-09-29T00:44:43.912Z,56.16
2018-09-29T00:45:44.214Z,56.14
2018-09-29T00:46:44.026Z,56.15
2018-09-29T00:47:44.242Z,56.14
2018-09-29T00:48:44.240Z,56.17
2018-09-29T00:49:44.235Z,56.19
2018-09-29T00:50:44.195Z,56.2
2018-09-29T00:51:44.035Z,56.14
2018-09-29T00:52:44.394Z,56.19
2018-09-29T00:53:44.465Z,56.16
2018-09-29T00:54:44.120Z,56.14
2018-09-29T00:55:44.118Z,56.17
2018-09-29T00:56:44.235Z,56.15
2018-09-29T00:57:44.126Z,56.18
2018-09-29T00:58:44.369Z,56.16
2018-09-29T00:59:44.173Z,56.19
2018-09-29T01:00:44.349Z,56.19
2018-09-29T01:01:44.486Z,56.17
2018-09-29T01:02:43.925Z,56.22
2018-09-29T01:03:44.060Z,56.22
2018-09-29T01:04:44.183Z,56.19
2018-09-29T01:05:44.072Z,56.26
2018-09-29T01:06:44.154Z,56.2
2018-09-29T01:07:44.233Z,56.17
2018-09-29T01:08:44.068Z,56.22
2018-09-29T01:09:44.092Z,56.18
2018-09-29T01:10:44.126Z,56.18
2018-09-29T01:11:44.126Z,56.17
2018-09-29T01:12:43.899Z,56.14
2018-09-29T01:13:44.072Z,56.19
2018-09-29T01:14:43.954Z,56.16
2018-09-29T01:15:44.058Z,56.14
2018-09-29T01:16:43.910Z,56.22
2018-09-29T01:17:44.080Z,56.21
2018-09-29T01:18:44.464Z,56.17
2018-09-29T01:19:44.116Z,56.21
2018-09-29T01:20:44.044Z,56.15
2018-09-29T01:21:43.900Z,56.15
2018-09-29T01:22:44.106Z,56.24
2018-09-29T01:23:44.000Z,56.19
2018-09-29T01:24:43.985Z,56.23
2018-09-29T01:25:44.062Z,56.17
2018-09-29T01:26:43.993Z,56.14
2018-09-29T01:27:44.284Z,56.13
2018-09-29T01:28:43.986Z,56.15
2018-09-29T01:29:44.043Z,56.16
2018-09-29T01:30:43.998Z,56.16
2018-09-29T01:31:44.070Z,56.17
2018-09-29T01:32:43.921Z,56.13
2018-09-29T01:33:44.268Z,56.16
2018-09-29T01:34:44.151Z,56.18
2018-09-29T01:35:44.033Z,56.19
2018-09-29T01:36:44.311Z,56.15
2018-09-29T01:37:44.393Z,56.14
2018-09-29T01:38:43.892Z,56.14
2018-09-29T01:39:44.116Z,56.15
2018-09-29T01:40:44.130Z,56.2
2018-09-29T01:41:44.001Z,56.15
2018-09-29T01:42:44.044Z,56.22
2018-09-29T01:43:44.241Z,56.23
2018-09-29T01:44:44.010Z,56.18
2018-09-29T01:45:44.259Z,56.19
2018-09-29T01:46:44.255Z,56.18
2018-09-29T01:47:44.129Z,56.14
2018-09-29T01:48:44.248Z,56.19
2018-09-29T01:49:44.027Z,56.17
2018-09-29T01:50:44.317Z,56.14
2018-09-29T01:51:44.207Z,56.1
2018-09-29T01:52:43.930Z,56.17
2018-09-29T01:53:44.009Z,56.17
2018-09-29T01:54:43.949Z,56.18
2018-09-29T01:55:43.943Z,56.2
2018-09-29T01:56:44.296Z,56.19
2018-09-29T01:57:43.996Z,56.22
2018-09-29T01:58:44.093Z,56.18
2018-09-29T01:59:44.010Z,56.19
2018-09-29T02:00:44.505Z,56.13
2018-09-29T02:01:44.242Z,56.11
2018-09-29T02:02:43.937Z,56.15
2018-09-29T02:03:44.050Z,56.15
2018-09-29T02:04:44.279Z,56.12
2018-09-29T02:05:43.900Z,56.15
2018-09-29T02:06:44.195Z,56.18
2018-09-29T02:07:44.241Z,56.19
2018-09-29T02:08:43.975Z,56.16
2018-09-29T02:09:44.451Z,56.14
2018-09-29T02:10:43.964Z,56.17
2018-09-29T02:11:44.196Z,56.17
2018-09-29T02:12:44.074Z,56.13
2018-09-29T02:13:44.080Z,56.17
2018-09-29T02:14:44.209Z,56.13
2018-09-29T02:15:44.271Z,56.17
2018-09-29T02:16:44.119Z,56.16
2018-09-29T02:17:44.038Z,56.16
2018-09-29T02:18:44.284Z,56.15
2018-09-29T02:19:44.227Z,56.15
2018-09-29T02:20:43.929Z,56.14
2018-09-29T02:21:44.062Z,56.18
2018-09-29T02:22:43.900Z,56.18
2018-09-29T02:23:44.041Z,56.15
2018-09-29T02:24:44.097Z,56.17
2018-09-29T02:25:44.109Z,56.19
2018-09-29T02:26:44.129Z,56.21
2018-09-29T02:27:43.907Z,56.16
2018-09-29T02:28:44.541Z,56.15
2018-09-29T02:29:44.010Z,56.19
2018-09-29T02:30:43.950Z,56.17
2018-09-29T02:31:43.962Z,56.19
2018-09-29T02:32:43.997Z,56.13
2018-09-29T02:33:43.947Z,56.13
2018-09-29T02:34:43.953Z,56.13
2018-09-29T02:35:44.130Z,56.1
2018-09-29T02:36:44.040Z,56.11
2018-09-29T02:37:43.968Z,56.06
2018-09-29T02:38:44.155Z,56.12
2018-09-29T02:39:44.065Z,56.1
2018-09-29T02:40:44.059Z,56.12
2018-09-29T02:41:43.848Z,56.12
2018-09-29T02:42:43.962Z,56.08
2018-09-29T02:43:43.998Z,56.07
2018-09-29T02:44:43.867Z,56.12
2018-09-29T02:45:44.007Z,56.13
2018-09-29T02:46:44.029Z,56.09
2018-09-29T02:47:44.226Z,56.08
2018-09-29T02:48:43.990Z,56.07
2018-09-29T02:49:44.222Z,56.1
2018-09-29T02:50:44.503Z,56.08
2018-09-29T02:51:43.917Z,56.08
2018-09-29T02:52:44.205Z,56.1
2018-09-29T02:53:44.188Z,56.08
2018-09-29T02:54:43.903Z,56.11
2018-09-29T02:55:44.127Z,56.1
2018-09-29T02:56:44.091Z,56.09
2018-09-29T02:57:43.955Z,56.1
2018-09-29T02:58:44.464Z,56.11
2018-09-29T02:59:43.864Z,56.08
2018-09-29T03:00:44.069Z,56.05
2018-09-29T03:01:44.247Z,56.04
2018-09-29T03:02:43.986Z,56.04
2018-09-29T03:03:44.037Z,56.01
2018-09-29T03:04:43.813Z,56.06
2018-09-29T03:05:44.018Z,56.12
2018-09-29T03:06:44.129Z,56.07
2018-09-29T03:07:43.931Z,56.06
2018-09-29T03:08:44.096Z,56.09
2018-09-29T03:09:44.026Z,56.08
2018-09-29T03:10:44.288Z,56.01
2018-09-29T03:11:43.911Z,56.12
2018-09-29T03:12:43.972Z,56.09
2018-09-29T03:13:44.099Z,56.1
2018-09-29T03:14:44.185Z,56.07
2018-09-29T03:15:43.950Z,56.05
2018-09-29T03:16:43.942Z,56.06
2018-09-29T03:17:43.999Z,56.04
2018-09-29T03:18:44.196Z,56.03
2018-09-29T03:19:44.023Z,56
2018-09-29T03:20:44.322Z,56.05
2018-09-29T03:21:43.901Z,56.01
2018-09-29T03:22:44.452Z,56.04
2018-09-29T03:23:44.245Z,56
2018-09-29T03:24:43.918Z,56.01
2018-09-29T03:25:44.069Z,56.02
2018-09-29T03:26:43.932Z,56.05
2018-09-29T03:27:44.290Z,55.99
2018-09-29T03:28:43.970Z,56.01
2018-09-29T03:29:44.101Z,56.07
2018-09-29T03:30:44.067Z,56.02
2018-09-29T03:31:46.159Z,56.01
2018-09-29T03:32:44.338Z,56.02
2018-09-29T03:33:43.998Z,55.99
2018-09-29T03:34:44.051Z,56.02
2018-09-29T03:35:44.022Z,56.03
2018-09-29T03:36:43.958Z,56.04
2018-09-29T03:37:44.016Z,56
2018-09-29T03:38:44.142Z,56.01
2018-09-29T03:39:44.157Z,56.01
2018-09-29T03:40:44.408Z,55.99
2018-09-29T03:41:44.026Z,55.96
2018-09-29T03:42:44.053Z,55.91
2018-09-29T03:43:43.855Z,56
2018-09-29T03:44:44.061Z,56
2018-09-29T03:45:44.144Z,56.02
2018-09-29T03:46:44.199Z,56.01
2018-09-29T03:47:44.241Z,55.99
2018-09-29T03:48:43.994Z,56.07
2018-09-29T03:49:44.202Z,56
2018-09-29T03:50:43.808Z,55.94
2018-09-29T03:51:44.153Z,55.96
2018-09-29T03:52:43.869Z,55.99
2018-09-29T03:53:45.609Z,55.97
2018-09-29T03:54:44.076Z,55.97
2018-09-29T03:55:44.022Z,55.99
2018-09-29T03:56:43.870Z,56.04
2018-09-29T03:57:44.488Z,56.04
2018-09-29T03:58:44.006Z,56.02
2018-09-29T03:59:43.968Z,55.99
2018-09-29T04:00:43.978Z,55.99
2018-09-29T04:01:44.131Z,56
2018-09-29T04:02:44.057Z,56.01
2018-09-29T04:03:43.823Z,56
2018-09-29T04:04:43.841Z,56.02
2018-09-29T04:05:43.990Z,55.97
2018-09-29T04:06:44.070Z,55.97
2018-09-29T04:07:44.047Z,55.93
2018-09-29T04:08:43.907Z,55.96
2018-09-29T04:09:44.051Z,56
2018-09-29T04:10:44.170Z,55.96
2018-09-29T04:11:43.935Z,55.97
2018-09-29T04:12:44.107Z,55.93
2018-09-29T04:13:44.771Z,55.93
2018-09-29T04:14:44.042Z,55.92
2018-09-29T04:15:44.035Z,55.91
2018-09-29T04:16:43.913Z,55.99
2018-09-29T04:17:44.124Z,55.99
2018-09-29T04:18:43.946Z,55.95
2018-09-29T04:19:44.190Z,55.91
2018-09-29T04:20:43.944Z,55.95
2018-09-29T04:21:44.058Z,55.95
2018-09-29T04:22:43.896Z,55.97
2018-09-29T04:23:43.960Z,56.04
2018-09-29T04:24:44.146Z,55.94
2018-09-29T04:25:44.089Z,55.99
2018-09-29T04:26:44.198Z,55.96
2018-09-29T04:27:44.146Z,55.93
2018-09-29T04:28:43.883Z,55.97
2018-09-29T04:29:44.099Z,56.01
2018-09-29T04:30:44.156Z,55.89
2018-09-29T04:31:43.942Z,55.9
2018-09-29T04:32:43.947Z,55.91
2018-09-29T04:33:44.217Z,55.93
2018-09-29T04:34:43.804Z,55.91
2018-09-29T04:35:44.118Z,55.92
2018-09-29T04:36:43.999Z,55.93
2018-09-29T04:37:44.153Z,55.93
2018-09-29T04:38:44.073Z,55.9
2018-09-29T04:39:44.101Z,55.89
2018-09-29T04:40:44.330Z,55.9
2018-09-29T04:41:44.163Z,55.84
2018-09-29T04:42:44.285Z,55.92
2018-09-29T04:43:44.104Z,55.91
2018-09-29T04:44:44.365Z,55.89
2018-09-29T04:45:43.885Z,55.89
2018-09-29T04:46:44.522Z,55.86
2018-09-29T04:47:43.999Z,55.86
2018-09-29T04:48:44.194Z,55.9
2018-09-29T04:49:43.860Z,55.9
2018-09-29T04:50:44.127Z,55.89
2018-09-29T04:51:43.950Z,55.93
2018-09-29T04:52:44.278Z,55.99
2018-09-29T04:53:43.932Z,55.92
2018-09-29T04:54:43.928Z,55.89
2018-09-29T04:55:43.971Z,55.89
2018-09-29T04:56:44.140Z,55.87
2018-09-29T04:57:44.312Z,55.89
2018-09-29T04:58:44.340Z,55.91
2018-09-29T04:59:43.936Z,55.9
2018-09-29T05:00:44.116Z,55.84
2018-09-29T05:01:44.245Z,55.9
2018-09-29T05:02:43.898Z,55.91
2018-09-29T05:03:44.056Z,55.86
2018-09-29T05:04:44.177Z,55.88
2018-09-29T05:05:43.876Z,55.9
2018-09-29T05:06:43.870Z,55.9
2018-09-29T05:07:43.878Z,55.95
2018-09-29T05:08:43.898Z,55.89
2018-09-29T05:09:44.112Z,55.84
2018-09-29T05:10:44.229Z,55.88
2018-09-29T05:11:44.012Z,55.87
2018-09-29T05:12:43.915Z,55.86
2018-09-29T05:13:43.878Z,55.85
2018-09-29T05:14:43.885Z,55.87
2018-09-29T05:15:44.256Z,55.85
2018-09-29T05:16:43.825Z,55.86
2018-09-29T05:17:43.958Z,55.87
2018-09-29T05:18:43.874Z,55.86
2018-09-29T05:19:43.832Z,55.86
2018-09-29T05:20:43.931Z,55.86
2018-09-29T05:21:43.868Z,55.92
2018-09-29T05:22:43.989Z,55.9
2018-09-29T05:23:43.825Z,55.9
2018-09-29T05:24:44.032Z,55.89
2018-09-29T05:25:44.228Z,55.88
2018-09-29T05:26:43.859Z,55.88
2018-09-29T05:27:43.974Z,55.87
2018-09-29T05:28:44.422Z,55.92
2018-09-29T05:29:43.801Z,55.91
2018-09-29T05:30:44.683Z,55.91
2018-09-29T05:31:43.979Z,55.97
2018-09-29T05:32:43.813Z,55.91
2018-09-29T05:33:44.106Z,55.93
2018-09-29T05:34:44.346Z,55.92
2018-09-29T05:35:43.783Z,55.91
2018-09-29T05:36:44.188Z,55.87
2018-09-29T05:37:44.044Z,55.89
2018-09-29T05:38:44.054Z,55.92
2018-09-29T05:39:43.881Z,55.86
2018-09-29T05:40:43.857Z,55.81
2018-09-29T05:41:43.893Z,55.84
2018-09-29T05:42:43.824Z,55.84
2018-09-29T05:43:43.948Z,55.9
2018-09-29T05:44:43.807Z,55.85
2018-09-29T05:45:44.029Z,55.82
2018-09-29T05:46:43.849Z,55.84
2018-09-29T05:47:43.993Z,55.85
2018-09-29T05:48:43.882Z,55.85
2018-09-29T05:49:43.778Z,55.87
2018-09-29T05:50:43.961Z,55.86
2018-09-29T05:51:44.114Z,55.85
2018-09-29T05:52:43.876Z,55.87
2018-09-29T05:53:44.588Z,55.83
2018-09-29T05:54:43.867Z,55.86
2018-09-29T05:55:44.541Z,55.82
2018-09-29T05:56:44.041Z,55.91
2018-09-29T05:57:44.347Z,55.87
2018-09-29T05:58:43.822Z,55.85
2018-09-29T05:59:44.128Z,55.86
2018-09-29T06:00:45.630Z,55.81
2018-09-29T06:01:44.085Z,55.84
2018-09-29T06:02:43.819Z,55.83
2018-09-29T06:03:43.878Z,55.84
2018-09-29T06:04:44.278Z,55.85
2018-09-29T06:05:44.959Z,55.86
2018-09-29T06:06:43.864Z,55.85
2018-09-29T06:07:44.089Z,55.87
2018-09-29T06:08:44.004Z,55.9
2018-09-29T06:09:43.980Z,55.85
2018-09-29T06:10:44.198Z,55.84
2018-09-29T06:11:44.209Z,55.82
2018-09-29T06:12:43.937Z,55.85
2018-09-29T06:13:44.205Z,55.88
2018-09-29T06:14:43.885Z,55.84
2018-09-29T06:15:44.195Z,55.8
2018-09-29T06:16:43.975Z,55.79
2018-09-29T06:17:43.985Z,55.83
2018-09-29T06:18:44.258Z,55.82
2018-09-29T06:19:44.197Z,55.81
2018-09-29T06:20:44.477Z,55.79
2018-09-29T06:21:43.975Z,55.8
2018-09-29T06:22:44.227Z,55.82
2018-09-29T06:23:44.246Z,55.75
2018-09-29T06:24:43.817Z,55.78
2018-09-29T06:25:44.072Z,55.81
2018-09-29T06:26:43.790Z,55.79
2018-09-29T06:27:44.079Z,55.79
2018-09-29T06:28:44.166Z,55.82
2018-09-29T06:29:43.975Z,55.8
2018-09-29T06:30:44.008Z,55.74
2018-09-29T06:31:43.835Z,55.78
2018-09-29T06:32:43.810Z,55.81
2018-09-29T06:33:43.931Z,55.76
2018-09-29T06:34:43.974Z,55.8
2018-09-29T06:35:44.165Z,55.82
2018-09-29T06:36:45.055Z,55.76
2018-09-29T06:37:43.955Z,55.75
2018-09-29T06:38:44.449Z,55.74
2018-09-29T06:39:44.130Z,55.75
2018-09-29T06:40:44.824Z,55.79
2018-09-29T06:41:44.060Z,55.79
2018-09-29T06:42:44.139Z,55.77
2018-09-29T06:43:43.962Z,55.77
2018-09-29T06:44:43.860Z,55.76
2018-09-29T06:45:43.958Z,55.81
2018-09-29T06:46:44.012Z,55.78
2018-09-29T06:47:45.189Z,55.77
2018-09-29T06:48:44.006Z,55.75
2018-09-29T06:49:43.975Z,55.77
2018-09-29T06:50:43.914Z,55.77
2018-09-29T06:51:43.804Z,55.81
2018-09-29T06:52:43.935Z,55.81
2018-09-29T06:53:43.848Z,55.76
2018-09-29T06:54:44.125Z,55.76
2018-09-29T06:55:43.964Z,55.76
2018-09-29T06:56:43.954Z,55.73
2018-09-29T06:57:43.823Z,55.72
2018-09-29T06:58:44.027Z,55.74
2018-09-29T06:59:44.670Z,55.74
2018-09-29T07:00:43.921Z,55.74
2018-09-29T07:01:44.139Z,55.8
2018-09-29T07:02:43.918Z,55.76
2018-09-29T07:03:44.043Z,55.75
2018-09-29T07:04:43.905Z,55.77
2018-09-29T07:05:44.172Z,55.77
2018-09-29T07:06:43.958Z,55.72
2018-09-29T07:07:44.070Z,55.74
2018-09-29T07:08:44.058Z,55.76
2018-09-29T07:09:43.945Z,55.79
2018-09-29T07:10:43.927Z,55.79
2018-09-29T07:11:43.890Z,55.75
2018-09-29T07:12:44.112Z,55.74
2018-09-29T07:13:44.327Z,55.75
2018-09-29T07:14:44.021Z,55.74
2018-09-29T07:15:43.917Z,55.72
2018-09-29T07:16:44.455Z,55.76
2018-09-29T07:17:44.151Z,55.73
2018-09-29T07:18:43.911Z,55.69
2018-09-29T07:19:43.873Z,55.74
2018-09-29T07:20:44.136Z,55.77
2018-09-29T07:21:45.728Z,55.7
2018-09-29T07:22:43.901Z,55.7
2018-09-29T07:23:43.891Z,55.69
2018-09-29T07:24:44.124Z,55.72
2018-09-29T07:25:44.421Z,55.76
2018-09-29T07:26:44.023Z,55.67
2018-09-29T07:27:43.889Z,55.73
2018-09-29T07:28:44.117Z,55.77
2018-09-29T07:29:43.821Z,55.75
2018-09-29T07:30:44.001Z,55.73
2018-09-29T07:31:44.104Z,55.7
2018-09-29T07:32:44.088Z,55.72
2018-09-29T07:33:44.140Z,55.75
2018-09-29T07:34:44.187Z,55.74
2018-09-29T07:35:44.069Z,55.7
2018-09-29T07:36:43.858Z,55.72
2018-09-29T07:37:44.086Z,55.69
2018-09-29T07:38:44.176Z,55.73
2018-09-29T07:39:44.273Z,55.71
2018-09-29T07:40:43.848Z,55.77
2018-09-29T07:41:43.923Z,55.72
2018-09-29T07:42:43.863Z,55.71
2018-09-29T07:43:44.121Z,55.68
2018-09-29T07:44:44.307Z,55.69
2018-09-29T07:45:43.958Z,55.68
2018-09-29T07:46:44.335Z,55.67
2018-09-29T07:47:43.877Z,55.69
2018-09-29T07:48:44.351Z,55.65
2018-09-29T07:49:44.175Z,55.7
2018-09-29T07:50:44.260Z,55.69
2018-09-29T07:51:44.023Z,55.68
2018-09-29T07:52:43.959Z,55.67
2018-09-29T07:53:43.990Z,55.66
2018-09-29T07:54:44.906Z,55.68
2018-09-29T07:55:44.503Z,55.69
2018-09-29T07:56:43.855Z,55.65
2018-09-29T07:57:44.721Z,55.65
2018-09-29T07:58:44.264Z,55.67
2018-09-29T07:59:44.322Z,55.66
2018-09-29T08:00:43.850Z,55.64
2018-09-29T08:01:44.050Z,55.65
2018-09-29T08:02:43.933Z,55.64
2018-09-29T08:03:44.110Z,55.63
2018-09-29T08:04:43.872Z,55.65
2018-09-29T08:05:43.996Z,55.66
2018-09-29T08:06:43.808Z,55.61
2018-09-29T08:07:43.867Z,55.63
2018-09-29T08:08:44.130Z,55.65
2018-09-29T08:09:44.206Z,55.6
2018-09-29T08:10:43.985Z,55.64
2018-09-29T08:11:43.882Z,55.65
2018-09-29T08:12:43.874Z,55.6
2018-09-29T08:13:44.076Z,55.58
2018-09-29T08:14:43.972Z,55.61
2018-09-29T08:15:43.884Z,55.58
2018-09-29T08:16:43.970Z,55.59
2018-09-29T08:17:43.979Z,55.6
2018-09-29T08:18:44.170Z,55.25
2018-09-29T08:19:44.054Z,52.39
2018-09-29T08:20:43.978Z,51.93
2018-09-29T08:21:43.924Z,51.17
2018-09-29T08:22:43.962Z,49.64
2018-09-29T08:23:43.868Z,50.02
2018-09-29T08:24:43.883Z,49
2018-09-29T08:25:43.924Z,49.62
2018-09-29T08:26:44.207Z,49.27
2018-09-29T08:27:44.376Z,49.54
2018-09-29T08:28:44.032Z,50.27
2018-09-29T08:29:43.748Z,50.77
2018-09-29T08:30:43.985Z,51.35
2018-09-29T08:31:43.855Z,51.55
2018-09-29T08:32:44.203Z,51.82
2018-09-29T08:33:44.098Z,51.76
2018-09-29T08:34:44.169Z,51.41
2018-09-29T08:35:43.835Z,51.73
2018-09-29T08:36:44.012Z,51.99
2018-09-29T08:37:45.026Z,52.3
2018-09-29T08:38:44.008Z,52.28
2018-09-29T08:39:43.959Z,52.4
2018-09-29T08:40:43.853Z,52.38
2018-09-29T08:41:43.851Z,52.38
2018-09-29T08:42:44.118Z,52.36
2018-09-29T08:43:43.955Z,52.54
2018-09-29T08:44:44.316Z,52.49
2018-09-29T08:45:43.990Z,52.52
2018-09-29T08:46:44.761Z,52.82
2018-09-29T08:47:44.078Z,52.77
2018-09-29T08:48:43.800Z,52.76
2018-09-29T08:49:44.002Z,52.88
2018-09-29T08:50:43.799Z,52.84
2018-09-29T08:51:43.829Z,52.86
2018-09-29T08:52:43.960Z,52.85
2018-09-29T08:53:45.359Z,52.92
2018-09-29T08:54:43.917Z,52.95
2018-09-29T08:55:44.128Z,53.05
2018-09-29T08:56:43.884Z,53.07
2018-09-29T08:57:43.898Z,53.06
2018-09-29T08:58:43.904Z,53.09
2018-09-29T08:59:43.923Z,53.11
2018-09-29T09:00:43.932Z,53.18
2018-09-29T09:01:43.795Z,53.15
2018-09-29T09:02:43.895Z,53.3
2018-09-29T09:03:43.867Z,53.26
2018-09-29T09:04:43.876Z,53.29
2018-09-29T09:05:43.852Z,53.35
2018-09-29T09:06:44.064Z,53.29
2018-09-29T09:07:43.860Z,53.3
2018-09-29T09:08:43.905Z,53.35
2018-09-29T09:09:44.094Z,53.36
2018-09-29T09:10:43.790Z,53.39
2018-09-29T09:11:43.843Z,53.42
2018-09-29T09:12:44.005Z,53.41
2018-09-29T09:13:44.182Z,53.48
2018-09-29T09:14:44.252Z,53.52
2018-09-29T09:15:44.155Z,53.56
2018-09-29T09:16:44.352Z,53.58
2018-09-29T09:17:43.849Z,53.62
2018-09-29T09:18:43.805Z,53.65
2018-09-29T09:19:44.085Z,53.67
2018-09-29T09:20:43.928Z,53.64
2018-09-29T09:21:44.091Z,53.63
2018-09-29T09:22:44.357Z,53.67
2018-09-29T09:23:44.767Z,53.64
2018-09-29T09:24:43.953Z,53.69
2018-09-29T09:25:44.102Z,53.69
2018-09-29T09:26:44.231Z,53.7
2018-09-29T09:27:44.263Z,53.72
2018-09-29T09:28:44.006Z,53.72
2018-09-29T09:29:44.638Z,53.69
2018-09-29T09:30:43.917Z,53.72
2018-09-29T09:31:43.928Z,53.76
2018-09-29T09:32:44.004Z,53.76
2018-09-29T09:33:43.938Z,53.77
2018-09-29T09:34:43.922Z,53.8
2018-09-29T09:35:44.018Z,53.84
2018-09-29T09:36:43.787Z,53.88
2018-09-29T09:37:43.972Z,53.87
2018-09-29T09:38:43.782Z,53.85
2018-09-29T09:39:43.855Z,53.83
2018-09-29T09:40:43.847Z,53.89
2018-09-29T09:41:43.884Z,53.89
2018-09-29T09:42:44.044Z,53.89
2018-09-29T09:43:43.759Z,53.88
2018-09-29T09:44:43.991Z,53.89
2018-09-29T09:45:43.793Z,53.93
2018-09-29T09:46:43.772Z,53.91
2018-09-29T09:47:43.717Z,53.95
2018-09-29T09:50:44.011Z,53.99
2018-09-29T09:51:44.120Z,54.05
2018-09-29T09:52:43.994Z,54.03
2018-09-29T09:53:43.858Z,54.05
2018-09-29T09:55:44.149Z,54.04
2018-09-29T09:56:44.023Z,54.07
2018-09-29T09:57:43.966Z,54.07
2018-09-29T09:58:44.101Z,54.11
2018-09-29T10:00:43.913Z,54.09
2018-09-29T10:01:44.022Z,54.12
2018-09-29T10:02:43.984Z,54.07
2018-09-29T10:03:43.937Z,54.08
2018-09-29T10:05:44.205Z,54.09
2018-09-29T10:06:43.802Z,54.1
2018-09-29T10:07:44.047Z,54.08
2018-09-29T10:08:44.013Z,54.11
2018-09-29T10:10:43.959Z,54.11
2018-09-29T10:11:44.228Z,54.13
2018-09-29T10:12:43.929Z,54.09
2018-09-29T10:13:44.194Z,54.14
2018-09-29T10:15:44.025Z,54.16
2018-09-29T10:16:43.939Z,54.12
2018-09-29T10:17:43.923Z,54.13
2018-09-29T10:18:43.834Z,54.27
2018-09-29T10:20:43.908Z,54.37
2018-09-29T10:21:44.226Z,54.46
2018-09-29T10:23:44.231Z,54.31
2018-09-29T10:24:44.022Z,54.3
2018-09-29T10:26:43.829Z,54.27
2018-09-29T10:28:44.017Z,54.33
2018-09-29T10:29:44.075Z,54.31
2018-09-29T10:30:44.405Z,54.33
2018-09-29T10:31:43.946Z,54.33
2018-09-29T10:33:43.958Z,54.29
2018-09-29T10:34:44.096Z,54.26
2018-09-29T10:36:43.872Z,54.33
2018-09-29T10:37:43.937Z,54.34
2018-09-29T10:38:43.784Z,54.31
2018-09-29T10:39:44.019Z,54.27
2018-09-29T10:41:43.863Z,54.21
2018-09-29T10:42:43.830Z,54.26
2018-09-29T10:43:43.809Z,54.27
2018-09-29T10:44:44.081Z,54.27
2018-09-29T10:46:43.915Z,54.35
2018-09-29T10:47:44.106Z,54.43
2018-09-29T10:49:43.918Z,54.43
2018-09-29T10:50:43.908Z,54.35
2018-09-29T10:51:43.865Z,54.31
2018-09-29T10:52:44.058Z,54.3
2018-09-29T10:54:43.838Z,54.29
2018-09-29T10:55:43.738Z,54.24
2018-09-29T10:56:43.942Z,54.28
2018-09-29T10:57:43.960Z,54.39
2018-09-29T10:59:43.752Z,54.34
2018-09-29T11:00:43.817Z,54.32
2018-09-29T11:01:43.823Z,54.34
2018-09-29T11:02:44.901Z,54.27
2018-09-29T11:04:43.891Z,54.34
2018-09-29T11:05:43.765Z,54.41
2018-09-29T11:06:43.965Z,54.38
2018-09-29T11:07:43.884Z,54.33
2018-09-29T11:09:44.258Z,54.31
2018-09-29T11:10:44.051Z,54.26
2018-09-29T11:11:43.781Z,54.33
2018-09-29T11:12:43.887Z,54.26
2018-09-29T11:14:43.892Z,54.36
2018-09-29T11:15:43.884Z,54.41
2018-09-29T11:16:43.871Z,54.39
2018-09-29T11:17:43.920Z,54.4
2018-09-29T11:19:43.932Z,54.33
2018-09-29T11:20:44.771Z,54.22
2018-09-29T11:21:43.818Z,54.17
2018-09-29T11:22:44.062Z,54.22
2018-09-29T11:25:43.823Z,54.02
2018-09-29T11:26:43.826Z,54
2018-09-29T11:27:45.438Z,53.99
2018-09-29T11:30:43.928Z,53.88
2018-09-29T11:31:44.028Z,53.89
2018-09-29T11:33:43.882Z,53.79
2018-09-29T11:34:43.760Z,53.78
2018-09-29T11:35:43.860Z,53.84
2018-09-29T11:36:44.013Z,53.65
2018-09-29T11:38:44.064Z,53.83
2018-09-29T11:39:43.908Z,53.76
2018-09-29T11:40:43.751Z,53.76
2018-09-29T11:41:44.172Z,53.74
2018-09-29T11:43:43.837Z,53.65
2018-09-29T11:44:44.930Z,53.66
2018-09-29T11:45:43.950Z,53.71
2018-09-29T11:46:43.882Z,53.77
2018-09-29T11:48:43.997Z,53.62
2018-09-29T11:49:44.208Z,53.67
2018-09-29T11:51:43.839Z,53.72
2018-09-29T11:53:44.092Z,53.77
2018-09-29T11:54:43.954Z,53.78
2018-09-29T11:55:43.875Z,53.7
2018-09-29T11:56:43.881Z,53.77
2018-09-29T11:58:43.739Z,53.82
2018-09-29T11:59:43.914Z,53.81
2018-09-29T12:00:44.096Z,53.74
2018-09-29T12:01:45.163Z,53.68
2018-09-29T12:04:43.843Z,53.8
2018-09-29T12:05:43.731Z,53.75
2018-09-29T12:06:43.898Z,53.78
2018-09-29T12:08:43.968Z,53.75
2018-09-29T12:09:43.853Z,53.74
2018-09-29T12:10:43.699Z,53.73
2018-09-29T12:11:43.728Z,53.82
2018-09-29T12:13:44.641Z,53.82
2018-09-29T12:14:43.820Z,53.77
2018-09-29T12:15:43.765Z,53.84
2018-09-29T12:16:43.941Z,53.9
2018-09-29T12:18:43.858Z,53.85
2018-09-29T12:19:44.358Z,53.86
2018-09-29T12:20:43.902Z,53.88
2018-09-29T12:21:43.804Z,53.83
2018-09-29T12:26:00.901Z,54.32
2018-09-29T12:27:00.885Z,54.52
2018-09-29T12:28:01.295Z,54.66
2018-09-29T12:29:00.881Z,54.59
2018-09-29T12:30:01.553Z,54.78
2018-09-29T12:31:01.334Z,54.89
2018-09-29T12:32:01.754Z,54.97
2018-09-29T12:33:01.147Z,55.08
2018-09-29T12:34:01.263Z,54.98
2018-09-29T12:35:01.184Z,54.98
2018-09-29T12:36:00.912Z,54.95
2018-09-29T12:37:02.923Z,54.89
2018-09-29T12:38:00.794Z,55.02
2018-09-29T12:39:00.834Z,55.13
2018-09-29T12:40:00.909Z,54.85
2018-09-29T12:41:00.998Z,54.43
2018-09-29T12:42:01.037Z,47.65
2018-09-29T12:43:01.183Z,45.91
2018-09-29T12:44:00.892Z,44.64
2018-09-29T12:45:01.098Z,45.86
2018-09-29T12:46:01.104Z,43.55
2018-09-29T12:47:00.868Z,42.06
2018-09-29T12:48:01.063Z,43.38
2018-09-29T12:49:00.837Z,42.81
2018-09-29T12:50:01.557Z,41.41
2018-09-29T12:51:00.725Z,41.54
2018-09-29T12:52:02.360Z,41.3
2018-09-29T12:53:00.912Z,41.12
2018-09-29T12:54:00.747Z,40.35
2018-09-29T12:55:00.941Z,39.55
2018-09-29T12:56:00.914Z,41.06
2018-09-29T12:57:00.856Z,40.92
2018-09-29T12:58:01.446Z,39.96
2018-09-29T12:59:02.566Z,40.46
2018-09-29T13:00:00.992Z,41.09
2018-09-29T13:01:01.772Z,44.88
2018-09-29T13:02:01.077Z,45.1
2018-09-29T13:03:00.987Z,45.93
2018-09-29T13:04:01.007Z,46.83
2018-09-29T13:05:01.059Z,47.01
2018-09-29T13:06:01.016Z,47.9
2018-09-29T13:07:00.765Z,47.93
2018-09-29T13:08:00.916Z,47.87
2018-09-29T13:09:01.356Z,48.21
2018-09-29T13:10:00.719Z,48.24
2018-09-29T13:11:02.023Z,48.09
2018-09-29T13:12:01.096Z,48.17
2018-09-29T13:13:01.025Z,48.52
2018-09-29T13:14:01.830Z,48.85
2018-09-29T13:15:00.894Z,49.1
2018-09-29T13:16:00.863Z,49.18
2018-09-29T13:17:02.792Z,49.54
2018-09-29T13:18:00.815Z,49.51
2018-09-29T13:19:00.897Z,49.68
2018-09-29T13:20:00.859Z,49.82
2018-09-29T13:21:01.001Z,50.05
2018-09-29T13:22:00.840Z,50.26
2018-09-29T13:23:02.060Z,50.22
2018-09-29T13:24:01.153Z,50.32
2018-09-29T13:25:01.131Z,50.26
2018-09-29T13:26:01.309Z,50.29
2018-09-29T13:27:01.144Z,50.74
2018-09-29T13:28:00.989Z,50.56
2018-09-29T13:29:01.062Z,50.79
2018-09-29T13:30:01.354Z,50.88
2018-09-29T13:31:00.996Z,50.91
2018-09-29T13:32:02.420Z,50.96
2018-09-29T13:33:00.995Z,51.11
2018-09-29T13:34:00.990Z,51.11
2018-09-29T13:35:01.114Z,51.21
2018-09-29T13:36:00.805Z,51.26
2018-09-29T13:37:01.900Z,51.37